CMA CGM Columba — 2DBC9 — position and weather

sailwx.info

Track history (hours):
 
Tides and Currents Weather Stations Pressure Air Temp Water Temp Dewpoint Dewpoint Depression Visibility Wind Speed Wind Dir Waves Ship Positions

CMA CGM Columba

Last reported at 2014-Nov-14 01:16 UTC. Time now 2014-Nov-26 12:51 UTC.
Position N 30°43' E 032°21'.
Warning: this ship's position is 12 days out of date.

Length 363 m; draft 15.3 m.

Type: Ship (hazmat cat A). MMSI: 235077448.

Date/timePositionNaut miles runAvg speedWind from/ knotsBaromVisibWave heightAir tempDewpointWater temp
2014-Nov-14 01:16N 30°43' E 032°21'251 6.5
2014-Nov-12 10:26N 33°55' E 035°32'0 0.0
2014-Nov-12 09:29N 33°55' E 035°32'0 0.0
2014-Nov-12 06:23N 33°55' E 035°32'0 0.0
2014-Nov-11 23:05N 33°55' E 035°32'0 0.2
2014-Nov-11 22:33N 33°55' E 035°32'2 1.6
2014-Nov-11 21:33N 33°56' E 035°32'1 1.2
2014-Nov-11 20:33N 33°57' E 035°30'1 0.5
2014-Nov-11 19:19N 33°57' E 035°31'5 3.0
2014-Nov-11 17:33N 33°54' E 035°25'2020.1
2014-Nov-11 16:33N 33°54' E 035°01'2120.9
2014-Nov-11 15:33N 33°56' E 034°36'2120.7
2014-Nov-11 14:33N 33°58' E 034°11'2020.1
2014-Nov-11 13:33N 34°01' E 033°47'2220.0
2014-Nov-11 12:29N 34°01' E 033°21'1920.1
2014-Nov-11 11:33N 34°02' E 032°59'2419.8
2014-Nov-11 10:20N 34°04' E 032°30'5720.2
2014-Nov-11 07:32N 34°08' E 031°22'2020.5
2014-Nov-11 06:34N 34°10' E 030°57'82519.2
2014-Nov-09 11:33N 36°24' E 014°20'2019.7
2014-Nov-09 10:33N 36°31' E 013°57'2319.7
2014-Nov-09 09:25N 36°39' E 013°31'9619.0
2014-Nov-09 04:20N 37°13' E 011°38'1518.8
2014-Nov-09 03:32N 37°18' E 011°20'1918.8
2014-Nov-09 02:32N 37°25' E 010°59'1919.2
2014-Nov-09 01:33N 37°30' E 010°35'1919.4
2014-Nov-09 00:33N 37°33' E 010°11'2019.7
2014-Nov-08 23:33N 37°31' E 009°46'2019.7
2014-Nov-08 22:32N 37°25' E 009°22'2020.0
2014-Nov-08 21:33N 37°20' E 008°58'1919.1
2014-Nov-08 20:33N 37°18' E 008°35'42719.3
2014-Nov-07 22:30N 36°36' W 000°16'1819.1
2014-Nov-07 21:34N 36°33' W 000°39'22219.6
2014-Nov-07 10:13N 36°01' W 005°12'1522.4
2014-Nov-07 09:33N 35°57' W 005°29'22717.4
2014-Nov-06 20:33N 37°32' W 009°46'1919.5
2014-Nov-06 19:34N 37°51' W 009°53'78119.1
2014-Nov-05 02:33N 49°56' W 003°09'2121.2
2014-Nov-05 01:33N 50°04' W 002°38'8821.9
2014-Nov-04 21:33N 49°38' W 000°28'1413.6
2014-Nov-04 20:33N 49°32' W 000°09'1212.0
2014-Nov-04 19:33N 49°28' E 000°08'2 1.5
2014-Nov-04 18:32N 49°27' E 000°10'0 0.0
2014-Nov-04 17:32N 49°27' E 000°10'0 0.0
2014-Nov-04 16:29N 49°27' E 000°10'0 0.0
2014-Nov-04 15:32N 49°27' E 000°10'0 0.0
2014-Nov-04 14:32N 49°27' E 000°10'0 0.0
2014-Nov-04 13:32N 49°27' E 000°10'0 0.0
2014-Nov-04 12:32N 49°27' E 000°10'0 0.0
2014-Nov-04 11:32N 49°27' E 000°10'0 0.0
2014-Nov-04 10:32N 49°27' E 000°10'0 0.0
2014-Nov-04 09:32N 49°27' E 000°10'0 0.0
2014-Nov-04 08:32N 49°27' E 000°10'0 0.0
2014-Nov-04 07:29N 49°27' E 000°10'0 0.0
2014-Nov-04 06:32N 49°27' E 000°10'0 0.0
2014-Nov-04 05:32N 49°27' E 000°10'5 4.7
2014-Nov-04 04:33N 49°29' E 000°04'1313.1
2014-Nov-04 03:34N 49°34' W 000°15'  
Track history (hours):
 
Tides and Currents Weather Stations Pressure Air Temp Water Temp Dewpoint Dewpoint Depression Visibility Wind Speed Wind Dir Waves Ship Positions

CMA CGM Columba

Last reported at 2014-Nov-14 01:16 UTC. Time now 2014-Nov-26 12:51 UTC.
Position N 30°43' E 032°21'.
Warning: this ship's position is 12 days out of date.

Length 363 m; draft 15.3 m.

Type: Ship (hazmat cat A). MMSI: 235077448.

Date/timePositionNaut miles runAvg speedWind from/ knotsBaromVisibWave heightAir tempDewpointWater temp
2014-Nov-14 01:16N 30°43' E 032°21'251 6.5
2014-Nov-12 10:26N 33°55' E 035°32'0 0.0
2014-Nov-12 09:29N 33°55' E 035°32'0 0.0
2014-Nov-12 06:23N 33°55' E 035°32'0 0.0
2014-Nov-11 23:05N 33°55' E 035°32'0 0.2
2014-Nov-11 22:33N 33°55' E 035°32'2 1.6
2014-Nov-11 21:33N 33°56' E 035°32'1 1.2
2014-Nov-11 20:33N 33°57' E 035°30'1 0.5
2014-Nov-11 19:19N 33°57' E 035°31'5 3.0
2014-Nov-11 17:33N 33°54' E 035°25'2020.1
2014-Nov-11 16:33N 33°54' E 035°01'2120.9
2014-Nov-11 15:33N 33°56' E 034°36'2120.7
2014-Nov-11 14:33N 33°58' E 034°11'2020.1
2014-Nov-11 13:33N 34°01' E 033°47'2220.0
2014-Nov-11 12:29N 34°01' E 033°21'1920.1
2014-Nov-11 11:33N 34°02' E 032°59'2419.8
2014-Nov-11 10:20N 34°04' E 032°30'5720.2
2014-Nov-11 07:32N 34°08' E 031°22'2020.5
2014-Nov-11 06:34N 34°10' E 030°57'82519.2
2014-Nov-09 11:33N 36°24' E 014°20'2019.7
2014-Nov-09 10:33N 36°31' E 013°57'2319.7
2014-Nov-09 09:25N 36°39' E 013°31'9619.0
2014-Nov-09 04:20N 37°13' E 011°38'1518.8
2014-Nov-09 03:32N 37°18' E 011°20'1918.8
2014-Nov-09 02:32N 37°25' E 010°59'1919.2
2014-Nov-09 01:33N 37°30' E 010°35'1919.4
2014-Nov-09 00:33N 37°33' E 010°11'2019.7
2014-Nov-08 23:33N 37°31' E 009°46'2019.7
2014-Nov-08 22:32N 37°25' E 009°22'2020.0
2014-Nov-08 21:33N 37°20' E 008°58'1919.1
2014-Nov-08 20:33N 37°18' E 008°35'42719.3
2014-Nov-07 22:30N 36°36' W 000°16'1819.1
2014-Nov-07 21:34N 36°33' W 000°39'22219.6
2014-Nov-07 10:13N 36°01' W 005°12'1522.4
2014-Nov-07 09:33N 35°57' W 005°29'22717.4
2014-Nov-06 20:33N 37°32' W 009°46'1919.5
2014-Nov-06 19:34N 37°51' W 009°53'78119.1
2014-Nov-05 02:33N 49°56' W 003°09'2121.2
2014-Nov-05 01:33N 50°04' W 002°38'8821.9
2014-Nov-04 21:33N 49°38' W 000°28'1413.6
2014-Nov-04 20:33N 49°32' W 000°09'1212.0
2014-Nov-04 19:33N 49°28' E 000°08'2 1.5
2014-Nov-04 18:32N 49°27' E 000°10'0 0.0
2014-Nov-04 17:32N 49°27' E 000°10'0 0.0
2014-Nov-04 16:29N 49°27' E 000°10'0 0.0
2014-Nov-04 15:32N 49°27' E 000°10'0 0.0
2014-Nov-04 14:32N 49°27' E 000°10'0 0.0
2014-Nov-04 13:32N 49°27' E 000°10'0 0.0
2014-Nov-04 12:32N 49°27' E 000°10'0 0.0
2014-Nov-04 11:32N 49°27' E 000°10'0 0.0
2014-Nov-04 10:32N 49°27' E 000°10'0 0.0
2014-Nov-04 09:32N 49°27' E 000°10'0 0.0
2014-Nov-04 08:32N 49°27' E 000°10'0 0.0
2014-Nov-04 07:29N 49°27' E 000°10'0 0.0
2014-Nov-04 06:32N 49°27' E 000°10'0 0.0
2014-Nov-04 05:32N 49°27' E 000°10'5 4.7
2014-Nov-04 04:33N 49°29' E 000°04'1313.1
2014-Nov-04 03:34N 49°34' W 000°15'  

Dump ship's entire track history